Main page
METAR-TAF:

METAR-TAF

Airports :

Dundee, Scotland

Dundee Airport

latitude: 56-27N, longitude: 003-01W, elevation: 4 m

Current weather observation

The report was made 6 hours and 23 minutes ago, at 20:20 UTC
Wind 5 kt from the North, varying between North/Northwest and Northeast
Temperature 17°C
Humidity 72%
Pressure 1015 hPa
Visibility 10 km or more
Few clouds at a height of 4800 ft

METAR: EGPN 232020Z 36005KT 330V040 9999 FEW048 17/12 Q1015

Time: 03:43 (02:43 UTC)

Forecast

The report was made 9 hours and 43 minutes ago, at 17:00 UTC
Forecast valid from 23 at 18 UTC to 23 at 20 UTC
Wind 9 kt from the Northeast
Visibility 10 km or more
Scattered clouds at a height of 2500 ft

TAF: EGPN 231700Z 2318/2320 04009KT 9999 SCT025

Weather observations and forecasts of more than 4000 airports (METAR and TAF reports).

The available stations are represented by yellow and red dots on the map.

Hover mouse over dot to see the name of the station.

Then click to see weather observations and forecasts.

To change the map : click on the green buttons with a black cross to zoom in, on the green button with a dash to zoom out, or on the green arrows for adjacent maps.


METAR-TAF: